Deo Volente — PHFJ — position and weather

sailwx.info

Track history (hours):
 
Tides and Currents Weather Stations Pressure Air Temp Water Temp Dewpoint Dewpoint Depression Visibility Wind Speed Wind Dir Waves Ship Positions

Deo Volente

Last reported at 2016-Jun-25 02:29 UTC. Time now 2016-Jun-25 17:54 UTC.
Position N 44°13' E 013°13'.

Length 105 m; draft 5 m.

Type: Cargo ship. MMSI: 246518000.

Date/timePositionNaut miles runAvg speedWind from/ knotsBaromVisibWave heightAir tempDewpointWater temp
2016-Jun-25 02:29N 44°13' E 013°13'1617.5
2016-Jun-25 01:33N 44°28' E 013°05'1817.5
2016-Jun-25 00:33N 44°44' E 012°55'1717.2
2016-Jun-24 23:33N 44°60' E 012°45'1716.8
2016-Jun-24 22:33N 45°11' E 012°27'8 8.3
2016-Jun-24 21:33N 45°13' E 012°16'0 0.1
2016-Jun-24 20:33N 45°13' E 012°16'0 0.0
2016-Jun-24 19:33N 45°13' E 012°16'0 0.0
2016-Jun-24 18:33N 45°13' E 012°16'3 2.8
2016-Jun-24 17:34N 45°14' E 012°19'1413.9
2016-Jun-24 16:34N 45°15' E 012°39'1716.7
2016-Jun-24 15:34N 45°08' E 013°00'1817.7
2016-Jun-24 14:34N 44°60' E 013°23'1716.8
2016-Jun-24 13:32N 44°53' E 013°45'  
2016-Jun-21 22:31N 38°14' E 020°12'1414.8
2016-Jun-21 21:33N 38°02' E 020°22'  
2016-Jun-19 16:33N 36°23' E 023°46'1615.9
2016-Jun-19 15:33N 36°23' E 023°26'37516.3
2016-Jun-18 16:33N 35°60' E 015°42'2016.1
2016-Jun-18 15:18N 35°58' E 015°17'1215.5
2016-Jun-18 14:32N 35°57' E 015°02'1515.2
2016-Jun-18 13:33N 35°56' E 014°44'11 3.5
2016-Jun-18 10:30N 35°54' E 014°31'9 9.6
2016-Jun-18 09:33N 36°02' E 014°26'1615.9
2016-Jun-18 08:33N 36°13' E 014°12'1616.0
2016-Jun-18 07:32N 36°24' E 013°57'3316.4
2016-Jun-18 05:33N 36°47' E 013°28'48515.6
2016-Jun-16 22:28N 43°25' E 007°27'1415.2
2016-Jun-16 21:33N 43°38' E 007°19'4 4.2
2016-Jun-16 20:33N 43°42' E 007°17'0 0.0
2016-Jun-16 19:33N 43°42' E 007°17'0 0.0
2016-Jun-16 18:34N 43°42' E 007°17'0 0.0
2016-Jun-16 17:30N 43°42' E 007°17'0 0.0
2016-Jun-16 16:33N 43°42' E 007°17'0 0.0
2016-Jun-16 15:33N 43°42' E 007°17'0 0.0
2016-Jun-16 14:32N 43°42' E 007°17'0 0.0
2016-Jun-16 13:33N 43°42' E 007°17'0 0.0
2016-Jun-16 12:33N 43°42' E 007°17'0 0.0
2016-Jun-16 11:33N 43°42' E 007°17'0 0.0
2016-Jun-16 10:32N 43°42' E 007°17'0 0.0
2016-Jun-16 09:22N 43°42' E 007°17'0 0.0
2016-Jun-16 08:33N 43°42' E 007°17'0 0.1
2016-Jun-16 07:33N 43°42' E 007°17'1212.3
2016-Jun-16 06:34N 43°30' E 007°10'22916.0
2016-Jun-15 16:12N 40°32' E 003°57'4716.1
2016-Jun-15 13:17N 39°56' E 003°18'911.6
2016-Jun-15 12:31N 39°50' E 003°09'0 0.0
2016-Jun-15 11:33N 39°50' E 003°09'0 0.0
2016-Jun-15 10:33N 39°50' E 003°09'0 0.0
2016-Jun-15 09:34N 39°50' E 003°09'0 0.0
2016-Jun-15 08:33N 39°50' E 003°09'0 0.0
2016-Jun-15 07:34N 39°50' E 003°09'0 0.0
2016-Jun-15 06:34N 39°50' E 003°09'0 0.0
2016-Jun-15 05:33N 39°50' E 003°09'3 2.9
2016-Jun-15 04:34N 39°51' E 003°12'10 8.3
2016-Jun-15 03:23N 39°58' E 003°04'1113.6
2016-Jun-15 02:33N 39°54' E 002°50'  
Track history (hours):
 
Tides and Currents Weather Stations Pressure Air Temp Water Temp Dewpoint Dewpoint Depression Visibility Wind Speed Wind Dir Waves Ship Positions

Deo Volente

Last reported at 2016-Jun-25 02:29 UTC. Time now 2016-Jun-25 17:54 UTC.
Position N 44°13' E 013°13'.

Length 105 m; draft 5 m.

Type: Cargo ship. MMSI: 246518000.

Date/timePositionNaut miles runAvg speedWind from/ knotsBaromVisibWave heightAir tempDewpointWater temp
2016-Jun-25 02:29N 44°13' E 013°13'1617.5
2016-Jun-25 01:33N 44°28' E 013°05'1817.5
2016-Jun-25 00:33N 44°44' E 012°55'1717.2
2016-Jun-24 23:33N 44°60' E 012°45'1716.8
2016-Jun-24 22:33N 45°11' E 012°27'8 8.3
2016-Jun-24 21:33N 45°13' E 012°16'0 0.1
2016-Jun-24 20:33N 45°13' E 012°16'0 0.0
2016-Jun-24 19:33N 45°13' E 012°16'0 0.0
2016-Jun-24 18:33N 45°13' E 012°16'3 2.8
2016-Jun-24 17:34N 45°14' E 012°19'1413.9
2016-Jun-24 16:34N 45°15' E 012°39'1716.7
2016-Jun-24 15:34N 45°08' E 013°00'1817.7
2016-Jun-24 14:34N 44°60' E 013°23'1716.8
2016-Jun-24 13:32N 44°53' E 013°45'  
2016-Jun-21 22:31N 38°14' E 020°12'1414.8
2016-Jun-21 21:33N 38°02' E 020°22'  
2016-Jun-19 16:33N 36°23' E 023°46'1615.9
2016-Jun-19 15:33N 36°23' E 023°26'37516.3
2016-Jun-18 16:33N 35°60' E 015°42'2016.1
2016-Jun-18 15:18N 35°58' E 015°17'1215.5
2016-Jun-18 14:32N 35°57' E 015°02'1515.2
2016-Jun-18 13:33N 35°56' E 014°44'11 3.5
2016-Jun-18 10:30N 35°54' E 014°31'9 9.6
2016-Jun-18 09:33N 36°02' E 014°26'1615.9
2016-Jun-18 08:33N 36°13' E 014°12'1616.0
2016-Jun-18 07:32N 36°24' E 013°57'3316.4
2016-Jun-18 05:33N 36°47' E 013°28'48515.6
2016-Jun-16 22:28N 43°25' E 007°27'1415.2
2016-Jun-16 21:33N 43°38' E 007°19'4 4.2
2016-Jun-16 20:33N 43°42' E 007°17'0 0.0
2016-Jun-16 19:33N 43°42' E 007°17'0 0.0
2016-Jun-16 18:34N 43°42' E 007°17'0 0.0
2016-Jun-16 17:30N 43°42' E 007°17'0 0.0
2016-Jun-16 16:33N 43°42' E 007°17'0 0.0
2016-Jun-16 15:33N 43°42' E 007°17'0 0.0
2016-Jun-16 14:32N 43°42' E 007°17'0 0.0
2016-Jun-16 13:33N 43°42' E 007°17'0 0.0
2016-Jun-16 12:33N 43°42' E 007°17'0 0.0
2016-Jun-16 11:33N 43°42' E 007°17'0 0.0
2016-Jun-16 10:32N 43°42' E 007°17'0 0.0
2016-Jun-16 09:22N 43°42' E 007°17'0 0.0
2016-Jun-16 08:33N 43°42' E 007°17'0 0.1
2016-Jun-16 07:33N 43°42' E 007°17'1212.3
2016-Jun-16 06:34N 43°30' E 007°10'22916.0
2016-Jun-15 16:12N 40°32' E 003°57'4716.1
2016-Jun-15 13:17N 39°56' E 003°18'911.6
2016-Jun-15 12:31N 39°50' E 003°09'0 0.0
2016-Jun-15 11:33N 39°50' E 003°09'0 0.0
2016-Jun-15 10:33N 39°50' E 003°09'0 0.0
2016-Jun-15 09:34N 39°50' E 003°09'0 0.0
2016-Jun-15 08:33N 39°50' E 003°09'0 0.0
2016-Jun-15 07:34N 39°50' E 003°09'0 0.0
2016-Jun-15 06:34N 39°50' E 003°09'0 0.0
2016-Jun-15 05:33N 39°50' E 003°09'3 2.9
2016-Jun-15 04:34N 39°51' E 003°12'10 8.3
2016-Jun-15 03:23N 39°58' E 003°04'1113.6
2016-Jun-15 02:33N 39°54' E 002°50'  

Dump ship's entire track history